Latest Weather Observations for Legendre Island

IDW60801

Issued at 1:02 pm WST Tuesday 4 August 2015 (issued every 30 minutes, with the page automatically refreshed every 10 minutes)

About weather observations | Map of weather stations | Latest weather observations for WA | Other Formats
Station Details ID: 004095 Name: LEGENDRE ISLAND Lat: -20.36 Lon: 116.84 Height: 29.0 m
Data from the previous 72 hours. | See also: Recent months at Legendre Island
Date/Time
WST
Temp
°C
App
Temp
°C
Dew
Point
Rel
Hum
%
Delta-T
°C
Wind Press
QNH
hPa
Press
MSL
hPa
Rain
since 9 am
mm
Dir
 
Spd
km/h
Gust
km/h
Spd
kts
Gust
kts
04/01:00pm 24.4 18.2 11.4 44 7.3 E 35 41 19 22 1019.6 1019.5 -
04/12:30pm 23.9 17.1 10.6 43 7.4 E 37 43 20 23 1020.0 1019.9 -
04/12:00pm 23.4 15.3 8.7 39 7.8 E 41 46 22 25 1020.2 1020.1 -
04/11:30am 23.4 15.7 10.1 43 7.3 E 41 48 22 26 1020.6 1020.5 -
04/11:00am 23.3 15.1 8.2 38 8.0 E 41 48 22 26 1021.0 1020.9 -
04/10:30am 23.1 14.7 8.8 40 7.6 E 43 48 23 26 1021.3 1021.2 -
04/10:00am 22.6 14.0 8.7 41 7.4 ESE 44 54 24 29 1021.3 1021.2 -
04/09:30am 22.0 12.5 8.5 42 7.1 ESE 48 57 26 31 1021.3 1021.2 -
04/09:00am 21.8 12.4 8.7 43 6.9 ESE 48 57 26 31 1021.2 1021.1 -
04/08:30am 21.3 12.0 9.2 46 6.5 ESE 48 57 26 31 1021.0 1020.9 -
04/08:00am 21.1 12.1 8.7 45 6.5 ESE 46 56 25 30 1021.0 1020.9 -
04/07:30am 20.4 12.2 8.1 45 6.4 ESE 41 50 22 27 1020.9 1020.8 -
04/07:00am 19.9 12.4 7.9 46 6.2 ESE 37 52 20 28 1020.7 1020.6 -
04/06:30am 20.4 12.5 9.3 49 5.9 ESE 41 52 22 28 1020.0 1019.9 -
04/06:00am 20.3 13.0 8.6 47 6.1 ESE 37 46 20 25 1020.0 1019.9 -
04/05:30am 20.7 13.1 9.0 47 6.2 ESE 39 46 21 25 1019.8 1019.7 -
04/05:00am 20.9 13.4 9.5 48 6.1 ESE 39 50 21 27 1019.4 1019.3 -
04/04:30am 21.2 14.0 10.7 51 5.8 ESE 39 48 21 26 1019.3 1019.2 -
04/04:00am 21.2 13.7 10.7 51 5.7 ESE 41 48 22 26 1019.3 1019.2 -
04/03:30am 21.2 14.5 11.0 52 5.6 ESE 37 46 20 25 1019.4 1019.3 -
04/03:00am 21.5 14.5 11.2 52 5.7 ESE 39 48 21 26 1019.2 1019.1 -
04/02:30am 21.9 15.3 12.5 55 5.3 ESE 39 50 21 27 1019.4 1019.3 -
04/02:00am 22.1 15.7 13.2 57 5.1 ESE 39 52 21 28 1019.3 1019.2 -
04/01:30am 22.2 15.9 13.5 57 5.0 ESE 39 50 21 27 1019.5 1019.4 -
04/01:00am 22.3 15.8 12.8 55 5.4 ESE 39 44 21 24 1019.4 1019.3 -
04/12:30am 22.4 15.6 12.1 52 5.8 ESE 39 46 21 25 1019.6 1019.5 -
04/12:00am 22.5 16.4 11.9 51 6.0 ESE 35 44 19 24 1019.6 1019.5 -
 
Date/Time
WST
Temp
°C
App
Temp
°C
Dew
Point
Rel
Hum
%
Delta-T
°C
Wind Press
QNH
hPa
Press
MSL
hPa
Rain
since 9 am
mm
Dir
 
Spd
km/h
Gust
km/h
Spd
kts
Gust
kts
03/11:30pm 22.5 16.9 12.2 52 5.8 ESE 33 41 18 22 1019.8 1019.7 -
03/11:00pm 22.4 17.5 12.6 54 5.6 ESE 30 39 16 21 1019.9 1019.8 -
03/10:30pm 21.8 18.6 14.2 62 4.4 ESE 24 30 13 16 1020.1 1020.0 -
03/10:00pm 21.4 19.0 16.4 73 3.0 SE 24 30 13 16 1020.2 1020.1 -
03/09:30pm 20.7 18.9 16.1 75 2.8 SE 20 22 11 12 1020.2 1020.1 -
03/09:00pm 20.5 19.8 16.3 77 2.5 SE 15 17 8 9 1020.2 1020.1 -
03/08:30pm 21.2 21.6 16.4 74 2.9 SE 9 9 5 5 1020.2 1020.1 -
03/08:00pm 21.7 23.0 16.2 71 3.3 NNE 4 6 2 3 1020.0 1019.9 -
03/07:30pm 21.9 23.6 17.1 74 2.9 NNE 4 6 2 3 1019.8 1019.7 -
03/07:00pm 21.6 23.2 16.8 74 2.9 NNE 4 4 2 2 1019.4 1019.3 -
03/06:30pm 22.7 24.0 17.6 73 3.2 NNE 7 7 4 4 1019.2 1019.1 -
03/06:00pm 22.8 23.7 17.5 72 3.3 NNE 9 11 5 6 1019.1 1019.0 -
03/05:30pm 23.4 24.0 17.8 71 3.5 NNE 11 15 6 8 1019.0 1018.9 -
03/05:00pm 23.9 24.7 18.1 70 3.6 NE 11 15 6 8 1018.8 1018.7 -
03/04:30pm 24.1 24.4 17.1 65 4.3 ENE 11 13 6 7 1018.7 1018.6 -
03/04:00pm 24.4 24.2 16.6 61 4.8 ENE 13 15 7 8 1018.7 1018.6 -
03/03:30pm 25.2 23.9 15.8 56 5.7 ENE 17 19 9 10 1018.8 1018.7 -
03/03:00pm 25.1 23.8 15.7 56 5.7 E 17 20 9 11 1018.9 1018.8 -
03/02:30pm 25.0 23.1 15.3 55 5.9 E 19 22 10 12 1019.1 1019.0 -
03/02:00pm 25.1 22.0 14.6 52 6.3 E 24 26 13 14 1019.4 1019.3 -
03/01:30pm 24.7 20.6 13.9 51 6.4 E 28 32 15 17 1019.7 1019.6 -
03/01:00pm 24.5 19.3 13.4 50 6.5 E 33 39 18 21 1020.0 1019.9 -
03/12:30pm 24.0 17.9 12.9 50 6.4 E 37 39 20 21 1020.5 1020.4 -
03/12:00pm 23.5 17.2 13.4 53 5.8 E 39 44 21 24 1020.8 1020.7 -
03/11:30am 23.3 17.0 13.5 54 5.7 E 39 46 21 25 1021.3 1021.2 -
03/11:00am 23.1 16.6 13.0 53 5.8 E 39 46 21 25 1021.8 1021.7 -
03/10:30am 22.7 15.9 13.2 55 5.5 E 41 50 22 27 1021.8 1021.7 -
03/10:00am 22.4 15.0 13.2 56 5.3 ESE 44 52 24 28 1021.8 1021.7 -
03/09:30am 22.2 14.6 13.5 57 5.0 ESE 46 54 25 29 1021.6 1021.5 -
03/09:00am 22.1 15.1 14.2 61 4.6 ESE 44 54 24 29 1021.2 1021.1 -
03/08:30am 21.8 14.4 14.2 62 4.4 ESE 46 56 25 30 1020.8 1020.7 -
03/08:00am 21.6 14.1 14.0 62 4.4 ESE 46 54 25 29 1020.4 1020.3 -
03/07:30am 21.5 14.7 14.4 64 4.2 ESE 43 50 23 27 1020.0 1019.9 -
03/07:00am 21.3 14.6 14.7 66 3.9 ESE 43 50 23 27 1019.7 1019.6 -
03/06:30am 21.3 15.1 14.9 67 3.8 ESE 41 50 22 27 1019.3 1019.2 -
03/06:00am 21.5 15.4 15.1 67 3.8 ESE 41 48 22 26 1018.7 1018.6 -
03/05:30am 21.8 15.9 15.6 68 3.7 ESE 41 48 22 26 1018.1 1018.0 -
03/05:00am 21.8 16.6 15.6 68 3.7 ESE 37 43 20 23 1017.9 1017.8 -
03/04:30am 21.9 17.6 16.0 69 3.6 E 33 43 18 23 1017.6 1017.4 -
03/04:00am 21.9 16.7 15.5 67 3.8 ESE 37 43 20 23 1017.7 1017.5 -
03/03:30am 21.3 18.0 14.9 67 3.8 ESE 26 32 14 17 1017.8 1017.6 -
03/03:00am 21.5 19.6 16.7 74 2.9 ESE 22 28 12 15 1017.8 1017.6 -
03/02:30am 20.5 18.8 15.7 74 2.9 ESE 19 22 10 12 1017.7 1017.5 -
03/02:00am 20.3 20.0 17.3 83 1.8 ESE 15 17 8 9 1018.0 1017.9 -
03/01:30am 19.6 19.7 16.6 83 1.8 SSE 11 19 6 10 1018.1 1018.0 -
03/01:00am 20.2 21.7 18.0 87 1.4 SSW 7 9 4 5 1018.4 1018.3 -
03/12:30am 19.7 21.2 18.9 95 0.5 SSW 9 11 5 6 1018.7 1018.6 -
03/12:00am 19.6 19.7 19.1 97 0.3 SSW 17 19 9 10 1018.3 1018.2 -
 
Date/Time
WST
Temp
°C
App
Temp
°C
Dew
Point
Rel
Hum
%
Delta-T
°C
Wind Press
QNH
hPa
Press
MSL
hPa
Rain
since 9 am
mm
Dir
 
Spd
km/h
Gust
km/h
Spd
kts
Gust
kts
02/11:30pm 19.6 19.8 19.3 98 0.2 SSW 17 19 9 10 1018.5 1018.4 -
02/11:00pm 20.3 20.1 19.8 97 0.3 SSW 20 22 11 12 1018.8 1018.7 -
02/10:30pm 20.6 20.7 20.3 98 0.2 SSW 20 24 11 13 1018.8 1018.7 -
02/10:00pm 20.6 20.6 20.1 97 0.3 SSW 20 24 11 13 1019.0 1018.9 -
02/09:30pm 20.7 20.2 20.0 96 0.4 SSW 22 26 12 14 1019.0 1018.9 -
02/09:00pm 20.5 19.9 19.8 96 0.4 SSW 22 26 12 14 1019.0 1018.9 -
02/08:30pm 20.3 20.0 19.5 95 0.5 SSW 20 22 11 12 1019.0 1018.9 -
02/08:00pm 20.5 19.7 19.3 93 0.8 SW 22 24 12 13 1018.8 1018.7 -
02/07:30pm 20.8 20.3 18.7 88 1.3 SW 19 20 10 11 1018.5 1018.4 -
02/07:00pm 21.3 20.5 18.5 84 1.8 SW 20 22 11 12 1018.1 1018.0 -
02/06:30pm 21.5 20.5 17.5 78 2.5 SW 19 20 10 11 1017.8 1017.6 -
02/06:00pm 22.0 21.5 16.9 73 3.1 WSW 15 17 8 9 1017.6 1017.4 -
02/05:30pm 23.0 22.3 16.5 67 4.0 WSW 15 19 8 10 1017.4 1017.2 -
02/05:00pm 23.9 23.0 15.9 61 4.8 W 15 19 8 10 1017.4 1017.2 -
02/04:30pm 24.5 23.7 15.1 55 5.6 W 13 15 7 8 1017.4 1017.2 -
02/04:00pm 25.4 24.9 14.8 52 6.3 WNW 11 13 6 7 1017.5 1017.3 -
02/03:30pm 25.5 25.0 13.7 48 6.9 NW 9 11 5 6 1017.7 1017.5 -
02/03:00pm 25.0 24.5 13.9 50 6.5 NNW 9 11 5 6 1017.8 1017.6 -
02/02:30pm 24.6 24.5 13.8 51 6.3 NNW 7 11 4 6 1018.0 1017.9 -
02/02:00pm 24.7 24.9 14.8 54 5.9 N 7 9 4 5 1018.1 1018.0 -
02/01:30pm 25.0 25.2 14.8 53 6.1 N 7 9 4 5 1018.2 1018.1 -
02/01:00pm 24.9 24.9 14.1 51 6.4 N 7 7 4 4 1018.6 1018.5 -
02/12:30pm 24.9 24.3 13.5 49 6.7 NE 9 11 5 6 1018.7 1018.6 -
02/12:00pm 25.1 23.6 13.0 47 7.0 E 13 17 7 9 1019.0 1018.9 -
02/11:30am 24.8 22.4 12.7 47 7.0 E 17 20 9 11 1019.1 1019.0 -
02/11:00am 24.5 20.6 12.1 46 7.1 E 24 28 13 15 1019.5 1019.4 -
02/10:30am 24.6 22.0 13.2 49 6.6 ESE 19 22 10 12 1019.9 1019.8 -
02/10:00am 24.1 22.5 13.9 53 6.0 E 15 17 8 9 1020.1 1020.0 -
02/09:30am 23.6 22.4 14.0 55 5.6 E 13 17 7 9 1020.1 1020.0 -
02/09:00am 23.3 23.0 15.4 61 4.7 ESE 11 17 6 9 1019.9 1019.8 -
02/08:30am 22.4 23.5 18.0 76 2.7 SE 9 13 5 7 1019.4 1019.3 -
02/08:00am 19.9 21.1 19.1 95 0.5 S 11 13 6 7 1019.1 1019.0 -
02/07:30am 18.7 18.9 18.5 99 0.1 S 15 17 8 9 1018.7 1018.6 -
02/07:00am 17.8 17.6 17.6 99 0.1 SSW 15 17 8 9 1018.4 1018.3 -
02/06:30am 17.8 17.6 17.6 99 0.1 SSW 15 17 8 9 1018.1 1018.0 -
02/06:00am 18.0 17.9 17.8 99 0.1 SSW 15 17 8 9 1017.8 1017.6 -
02/05:30am 18.6 18.7 18.4 99 0.1 SW 15 17 8 9 1017.4 1017.2 -
02/05:00am 18.8 18.6 18.6 99 0.1 SW 17 19 9 10 1017.2 1017.0 -
02/04:30am 19.2 19.6 19.0 99 0.1 SW 15 17 8 9 1017.2 1017.0 -
02/04:00am 19.6 19.2 18.9 96 0.4 SW 19 20 10 11 1017.4 1017.2 -
02/03:30am 19.6 18.9 18.6 94 0.6 SW 20 26 11 14 1017.2 1017.0 -
02/03:00am 20.0 18.6 18.7 92 0.8 SW 24 26 13 14 1017.3 1017.1 -
02/02:30am 20.0 18.4 18.3 90 1.1 SW 24 28 13 15 1017.5 1017.3 -
02/02:00am 20.2 17.7 18.1 88 1.3 SW 28 33 15 18 1017.7 1017.5 -
02/01:30am 20.3 17.7 18.6 90 1.1 SSW 30 35 16 19 1018.0 1017.9 -
02/01:00am 20.4 18.7 18.9 91 0.9 SSW 26 32 14 17 1018.1 1018.0 -
02/12:30am 20.6 18.9 18.9 90 1.1 SSW 26 32 14 17 1018.1 1018.0 -
02/12:00am 20.8 18.9 18.6 87 1.4 SW 26 32 14 17 1017.9 1017.8 -
 
Date/Time
WST
Temp
°C
App
Temp
°C
Dew
Point
Rel
Hum
%
Delta-T
°C
Wind Press
QNH
hPa
Press
MSL
hPa
Rain
since 9 am
mm
Dir
 
Spd
km/h
Gust
km/h
Spd
kts
Gust
kts
01/11:30pm 20.9 18.6 18.5 86 1.5 SW 28 32 15 17 1018.0 1017.9 -
01/11:00pm 21.2 19.2 18.2 83 1.9 SW 26 32 14 17 1018.2 1018.1 -
01/10:30pm 21.3 19.2 18.1 82 2.0 SW 26 32 14 17 1018.1 1018.0 -
01/10:00pm 21.4 19.4 18.4 83 1.9 SW 26 33 14 18 1018.1 1018.0 -
01/09:30pm 21.6 19.6 18.4 82 2.0 SW 26 32 14 17 1017.9 1017.8 -
01/09:00pm 21.8 18.9 18.0 79 2.4 SW 30 35 16 19 1017.7 1017.5 -
01/08:30pm 21.9 19.2 17.5 76 2.7 SW 28 35 15 19 1017.5 1017.3 -
01/08:00pm 21.9 19.3 17.7 77 2.6 SW 28 32 15 17 1017.3 1017.1 -
01/07:30pm 22.1 19.0 17.5 75 2.8 SW 30 35 16 19 1017.1 1016.9 -
01/07:00pm 22.0 19.0 17.8 77 2.6 WSW 30 35 16 19 1016.8 1016.6 -
01/06:30pm 22.0 19.2 18.2 79 2.4 WSW 30 37 16 20 1016.5 1016.3 -
01/06:00pm 22.2 19.0 18.2 78 2.5 WSW 32 37 17 20 1016.2 1016.0 -
01/05:30pm 23.0 19.9 18.5 76 2.8 WSW 32 39 17 21 1016.2 1016.0 -
01/05:00pm 23.5 20.9 18.6 74 3.1 WSW 30 35 16 19 1016.1 1015.9 -
01/04:30pm 24.1 21.4 18.5 71 3.5 WSW 30 37 16 20 1015.9 1015.7 -
01/04:00pm 25.1 22.6 18.8 68 4.0 WSW 30 33 16 18 1015.9 1015.7 -
01/03:30pm 25.3 23.3 18.2 64 4.5 WSW 26 33 14 18 1016.0 1015.8 -
01/03:00pm 25.4 23.4 18.3 65 4.5 WSW 26 32 14 17 1015.9 1015.7 -
01/02:30pm 26.2 24.7 18.6 63 4.8 WSW 24 32 13 17 1016.3 1016.1 -
01/02:00pm 25.9 23.9 18.3 63 4.8 WSW 26 32 14 17 1016.3 1016.1 -
01/01:30pm 26.0 23.8 17.9 61 5.1 WSW 26 30 14 16 1016.5 1016.3 -

Other Formats:

Comma delimited format used in spreadsheet applications
http://www.bom.gov.au/fwo/IDW60801/IDW60801.94307.axf

JavaScript Object Notation format (JSON) in row-major order
http://www.bom.gov.au/fwo/IDW60801/IDW60801.94307.json